»·PEaware :: N291VH KSNA-KAVX

N291VH :: KSNA-KAVX

FLIGHT INFORMATION

Flight Status: Arrived
Operator: Privately registered:
United States
More flights under this callsign
Pilot: Peter B. (26628)
Aircraft: SOCATA TBM-900
(TBM9)
More flights by this aircraft type
Origin: KSNA John Wayne-Orange Co
United States
Destination: KAVX Catalina
United States
More flights between these airports :: More routes between these airports
Route: +SLI V21 SXC
File this flight plan on PilotEdge
Remarks: I 7
Altitude:
(Current/Filed)
12,000ft
Speed:
(Current/Filed)
220kts
Departed: 24-Jan-20 03:15 PM
Arrived: 24-Jan-20 03:53 PM
Distance/Time
Traveled:
32nm/0:38
Distance/Time
To Go:
Arrived

Flight Plot

Page will automatically refresh every two minutes.


Map Options




Map Legend


Flown Route
Filed Route
Departure Airport
Arrival Airport
Navaid (VOR, NDB)
Fix

Horizontal Profiles

Position Reports

Time Latitude Longitude Heading Altitude Ground
Speed
24-Jan-20 14:30 33.676216 -117.871054 219 52ft 0kts
24-Jan-20 14:31 33.676216 -117.871054 219 52ft 0kts
24-Jan-20 14:32 33.676216 -117.871054 219 52ft 0kts
24-Jan-20 14:33 33.676216 -117.871054 219 52ft 0kts
24-Jan-20 14:34 33.676216 -117.871054 219 52ft 0kts
24-Jan-20 14:35 33.676216 -117.871054 219 52ft 0kts
24-Jan-20 14:36 33.676216 -117.871054 219 52ft 0kts
24-Jan-20 14:37 33.676216 -117.871054 219 52ft 0kts
24-Jan-20 14:38 33.676216 -117.871054 219 52ft 0kts
24-Jan-20 14:39 33.676216 -117.871054 219 52ft 0kts
24-Jan-20 14:40 33.676216 -117.871054 219 52ft 0kts
24-Jan-20 14:41 33.676216 -117.871054 219 52ft 0kts
24-Jan-20 14:42 33.676216 -117.871054 219 52ft 0kts
24-Jan-20 14:43 33.676216 -117.871054 219 52ft 0kts
24-Jan-20 14:44 33.676216 -117.871054 219 52ft 0kts
24-Jan-20 14:45 33.676216 -117.871054 219 52ft 0kts
24-Jan-20 14:46 33.676216 -117.871054 219 52ft 0kts
24-Jan-20 14:47 33.676216 -117.871054 219 52ft 0kts
24-Jan-20 14:49 33.676216 -117.871054 219 52ft 0kts
24-Jan-20 14:50 33.676216 -117.871054 219 52ft 0kts
24-Jan-20 14:51 33.676216 -117.871054 219 52ft 0kts
24-Jan-20 14:52 33.676216 -117.871054 219 52ft 0kts
24-Jan-20 14:53 33.676216 -117.871054 219 52ft 0kts
24-Jan-20 14:54 33.676216 -117.871054 219 52ft 0kts
24-Jan-20 14:55 33.676216 -117.871054 219 52ft 0kts
24-Jan-20 14:56 33.676216 -117.871054 219 52ft 0kts
24-Jan-20 14:57 33.676216 -117.871054 219 52ft 0kts
24-Jan-20 14:58 33.676216 -117.871054 219 52ft 0kts
24-Jan-20 14:59 33.676216 -117.871054 219 52ft 0kts
24-Jan-20 15:00 33.676216 -117.871054 219 52ft 0kts
24-Jan-20 15:01 33.676216 -117.871054 219 52ft 0kts
24-Jan-20 15:02 33.676216 -117.871054 219 52ft 0kts
24-Jan-20 15:03 33.676216 -117.871054 219 52ft 0kts
24-Jan-20 15:04 33.676216 -117.871054 219 52ft 0kts
24-Jan-20 15:05 33.676216 -117.871054 219 52ft 0kts
24-Jan-20 15:05 33.676216 -117.871054 219 52ft 0kts
24-Jan-20 15:07 33.675799 -117.870635 125 52ft 2kts
24-Jan-20 15:08 33.676748 -117.869745 24 52ft 8kts
24-Jan-20 15:08 33.679137 -117.868241 31 52ft 12kts
24-Jan-20 15:09 33.681287 -117.866608 102 52ft 6kts
24-Jan-20 15:11 33.681263 -117.866525 113 52ft 0kts
24-Jan-20 15:11 33.681263 -117.866525 113 52ft 0kts
24-Jan-20 15:12 33.681263 -117.866525 113 52ft 0kts
24-Jan-20 15:14 33.681263 -117.866525 113 52ft 0kts
24-Jan-20 15:14 33.676732 -117.868082 207 52ft 100kts
24-Jan-20 15:15 33.643502 -117.881317 186 1743ft 148kts
24-Jan-20 15:16 33.601122 -117.886201 186 3922ft 159kts
24-Jan-20 15:17 33.552659 -117.891438 186 4998ft 178kts
24-Jan-20 15:18 33.511474 -117.906497 211 5000ft 151kts
24-Jan-20 15:19 33.473813 -117.931543 211 5003ft 156kts
24-Jan-20 15:20 33.435295 -117.957236 211 5001ft 159kts
24-Jan-20 15:22 33.394646 -117.984402 211 5001ft 161kts
24-Jan-20 15:22 33.362133 -118.006053 211 4999ft 159kts
24-Jan-20 15:23 33.322307 -118.032159 211 5000ft 164kts
24-Jan-20 15:25 33.283976 -118.088393 311 4998ft 107kts
24-Jan-20 15:26 33.298873 -118.127172 290 5031ft 153kts
24-Jan-20 15:27 33.312194 -118.177673 290 4975ft 142kts
24-Jan-20 15:28 33.323190 -118.219811 290 5022ft 145kts
24-Jan-20 15:29 33.336287 -118.270201 289 5006ft 164kts
24-Jan-20 15:30 33.350100 -118.323480 289 5001ft 168kts
24-Jan-20 15:31 33.364144 -118.377693 289 4999ft 169kts
24-Jan-20 15:32 33.378165 -118.431847 290 5000ft 169kts
24-Jan-20 15:33 33.409132 -118.443615 48 5008ft 172kts
24-Jan-20 15:34 33.450176 -118.412608 23 4253ft 177kts
24-Jan-20 15:35 33.497671 -118.404696 2 3386ft 161kts
24-Jan-20 15:36 33.539370 -118.411179 325 3402ft 153kts
24-Jan-20 15:37 33.572814 -118.444076 318 3400ft 155kts
24-Jan-20 15:38 33.608011 -118.471654 13 3393ft 160kts
24-Jan-20 15:39 33.602668 -118.428385 137 3413ft 175kts
24-Jan-20 15:40 33.561956 -118.400538 181 3381ft 165kts
24-Jan-20 15:41 33.517820 -118.403090 185 2705ft 167kts
24-Jan-20 15:42 33.470687 -118.405726 165 1878ft 154kts
24-Jan-20 15:43 33.439584 -118.378098 127 1908ft 134kts
24-Jan-20 15:44 33.416448 -118.341400 120 1931ft 137kts
24-Jan-20 15:45 33.436379 -118.317659 25 1925ft 118kts
24-Jan-20 15:46 33.458027 -118.286167 49 1909ft 124kts
24-Jan-20 15:47 33.478338 -118.293895 251 1933ft 115kts
24-Jan-20 15:48 33.458395 -118.325234 231 1922ft 118kts
24-Jan-20 15:49 33.435214 -118.358208 231 2728ft 144kts
24-Jan-20 15:50 33.417805 -118.391991 244 1894ft 87kts
24-Jan-20 15:51 33.405766 -118.414531 236 1569ft 56kts
24-Jan-20 15:52 33.403321 -118.415940 122 1569ft 5kts
24-Jan-20 15:54 33.403386 -118.415497 51 1569ft 0kts
24-Jan-20 15:54 33.403386 -118.415497 51 1569ft 0kts
24-Jan-20 15:55 33.403386 -118.415497 51 1569ft 0kts
24-Jan-20 15:56 33.403386 -118.415497 51 1569ft 0kts
24-Jan-20 15:57 33.403386 -118.415497 51 1569ft 0kts
24-Jan-20 15:58 33.403386 -118.415497 51 1569ft 0kts
24-Jan-20 15:59 33.403386 -118.415497 51 1569ft 0kts
24-Jan-20 16:00 33.403386 -118.415497 51 1569ft 0kts
24-Jan-20 16:01 33.403386 -118.415497 51 1569ft 0kts
24-Jan-20 16:02 33.403386 -118.415497 51 1569ft 0kts
24-Jan-20 16:03 33.403386 -118.415497 51 1569ft 0kts
24-Jan-20 16:04 33.403386 -118.415497 51 1569ft 0kts
24-Jan-20 16:05 33.403386 -118.415497 51 1569ft 0kts
24-Jan-20 16:06 33.403386 -118.415497 51 1569ft 0kts
24-Jan-20 16:07 33.403386 -118.415497 51 1569ft 0kts

Navigation Log

Ident Type
Flight plan parsing failed, navigation log unavailable